Louise, Mississippi
Current Conditions -  °F | °C
As of 7:53 PM on Wednesday 26 Nov 2014 (Local Time) from KGLH Reporting Station
Clear Clear  
Wind Chill: 51°   Ceiling: Unl
Heat Index: 51°   Visibility: 10mi
Dew Point: 35°   Wind: 9mph
Humidity: 54%   Direction: 280°W
Pressure: 30.18"   Gusts: NA
Location:  32.98°N, 90.59°W
Report Text: KGLH 270153Z AUTO 28008KT 10SM CLR 11/02 A3018 RMK AO2 SLP227 T01060017
Loading
Personal Weather Stations






























Interactive Weather Map New forecast layout! Learn more

10-Day Weather Forecast

Advertisements
Track Severe Weather on mobile